Terminal Aerodrome Forecast
Issued by NWS Charleston, WV

Home | Current Version | Previous Version | Text Only | Print | Product List | Glossary On
Versions: 1 2 3 4 5 6 7 8 9 10 11 12 13 14 15 16 17 18 19 20 21 22 23 24
810
FTUS41 KRLX 162326
TAFCRW
TAF
KCRW 162326Z 1700/1724 32003KT 1SM -SN BR BKN013 OVC020
     FM170100 30005KT 3SM -SN OVC015
     FM170200 31005KT 4SM -SHSN OVC022
     FM170500 31005KT P6SM OVC023
     FM171900 28005KT P6SM SCT026=

USA.gov is the U.S. government's official web portal to all federal, state and local government web resources and services.